• Join FlightAware (Why Join?)
  • Login
  • US Flag 
06:31PM EDT


 

Airport Tracker/Info


-or-


 

Live Flight TrackerFlight Track Log ✈ DAL2001 ✈ 23-Apr-2013 ✈ KSLC - KRNO

Flight Track Log - Related Links

Times and Time Zones

All times are in EDT time to prevent confusion due to time zone crossing. See the DAL2001 flight status page for this flight to view local times or setup timezone preferences in your user account.

Time Position Orientation Groundspeed Altitude Reporting Facility
EDT Latitude Longitude Course Direction KTS MPH feet Rate Location/Type
12:59AM 40.8133 -112.0025 255° West 177 204 5,300  Level Salt Lake Center
01:00AM 40.8503 -112.0922 299° West 244 281 8,100 2,220 Climbing Salt Lake Center
01:01AM 40.8589 -112.1158 296° West 243 280 9,200 2,700 Climbing Salt Lake Center
01:01AM 40.8794 -112.1758 294° West 255 293 10,900 2,280 Climbing Salt Lake Center
01:02AM 40.8648 -112.4445 258° West  Level FlightAware Approximate
01:02AM 40.8886 -112.2050 293° West 266 306 11,500  Level Salt Lake Center
01:03AM 40.8500 -112.5808 270° West  Level FlightAware Approximate
01:03AM 40.8803 -112.3314 265° West 346 398 13,400  Level Salt Lake Center
01:04AM 40.8366 -112.7170 255° West  Level FlightAware Approximate
01:04AM 40.8700 -112.4592 264° West 350 403 17,500  Level Salt Lake Center
01:05AM 40.8625 -112.5744 265° West 318 366 20,200 2,040 Climbing Salt Lake Center
01:06AM 40.8522 -112.7064 264° West 367 422 21,700 2,280 Climbing Salt Lake Center
01:07AM 40.8414 -112.8686 265° West 369 425 24,800 2,400 Climbing Salt Lake Center
01:08AM 40.8425 -113.0031 271° West 366 421 26,600 1,680 Climbing Salt Lake Center
01:09AM 40.8436 -113.1411 271° West 374 430 28,300 1,440 Climbing Salt Lake Center
01:10AM 40.8428 -113.2811 270° West 380 437 29,600 1,380 Climbing Salt Lake Center
01:11AM 40.8433 -113.4253 270° West 391 450 31,200 1,620 Climbing Salt Lake Center
01:12AM 40.8431 -113.5631 270° West 381 438 32,900 1,500 Climbing Salt Lake Center
01:13AM 40.8425 -113.7008 270° West 376 433 34,300 1,080 Climbing Salt Lake Center
01:14AM 40.8411 -113.8392 269° West 377 434 35,100 780 Climbing Salt Lake Center
01:15AM 40.8414 -113.9786 270° West 381 438 36,000 420 Climbing Salt Lake Center
01:16AM 40.8394 -114.1164 269° West 378 435 36,000  Level Salt Lake Center
01:17AM 40.8392 -114.2544 270° West 377 434 36,000  Level Salt Lake Center
01:18AM 40.8361 -114.3931 268° West 378 435 36,000  Level Salt Lake Center
01:19AM 40.8358 -114.5300 270° West 376 433 36,000  Level Salt Lake Center
01:20AM 40.8344 -114.6697 269° West 371 427 36,000  Level Salt Lake Center
01:21AM 40.8283 -114.8000 266° West 370 426 36,000  Level Salt Lake Center
01:22AM 40.8114 -114.9511 262° West 372 428 36,000  Level Salt Lake Center
01:23AM 40.7931 -115.0786 259° West 368 423 36,000  Level Salt Lake Center
01:24AM 40.7781 -115.2075 261° West 370 426 36,000  Level Salt Lake Center
01:25AM 40.7617 -115.3583 262° West 372 428 36,000  Level Salt Lake Center
01:26AM 40.7469 -115.4875 261° West 372 428 36,000  Level Salt Lake Center
01:27AM 40.7308 -115.6142 261° West 368 423 36,000  Level Salt Lake Center
01:28AM 40.7153 -115.7622 262° West 365 420 36,000  Level Salt Lake Center
01:29AM 40.6994 -115.8897 261° West 367 422 36,000  Level Salt Lake Center
01:30AM 40.6844 -116.0156 261° West 366 421 36,000  Level Salt Lake Center
01:31AM 40.6653 -116.1636 260° West 367 422 36,000  Level Salt Lake Center
01:32AM 40.6486 -116.2922 260° West 370 426 36,000  Level Salt Lake Center
01:33AM 40.6331 -116.4206 261° West 371 427 36,000  Level Salt Lake Center
01:34AM 40.6139 -116.5711 261° West 374 430 36,000  Level Salt Lake Center
01:35AM 40.5981 -116.6997 261° West 374 430 36,000  Level Salt Lake Center
01:36AM 40.5811 -116.8292 260° West 378 435 36,000  Level Salt Lake Center
01:37AM 40.5550 -116.9800 257° West 386 444 36,000  Level Salt Lake Center
01:38AM 40.5203 -117.1081 250° West 393 452 36,000  Level Salt Lake Center
01:39AM 40.4814 -117.2575 251° West 391 450 36,000  Level Salt Lake Center
01:40AM 40.4472 -117.3836 250° West 387 445 36,000  Level Salt Lake Center
01:41AM 40.4142 -117.5100 251° West 385 443 36,000  Level Salt Lake Center
01:42AM 40.3739 -117.6592 251° West 387 445 36,000 -360 Level Salt Lake Center
01:43AM 40.3417 -117.7883 252° West 389 448 35,300 -840 Descending Salt Lake Center
01:44AM 40.3122 -117.9197 254° West 391 450 34,400 -1,020 Descending Salt Lake Center
01:45AM 40.2919 -118.0086 253° West 394 453 33,700 -1,020 Descending Oakland Center
01:46AM 40.2647 -118.1389 255° West 396 456 32,800 -900 Descending Oakland Center
01:47AM 40.2322 -118.2792 253° West 402 463 31,900 -960 Descending Oakland Center
01:48AM 40.1992 -118.4183 253° West 403 464 30,900 -1,020 Descending Oakland Center
01:49AM 40.1669 -118.5614 254° West 409 471 29,900 -1,020 Descending Oakland Center
01:50AM 40.1308 -118.7042 252° West 414 476 28,900 -1,500 Descending Oakland Center
01:50AM 40.1108 -118.7903 253° West 419 482 27,800 -2,880 Descending Salt Lake Center
01:51AM 40.0906 -118.8789 253° West 420 483 26,000 -3,240 Descending Oakland Center
01:52AM 40.0569 -119.0172 252° West 408 470 22,700 -3,180 Descending Oakland Center
01:53AM 40.0239 -119.1503 252° West 391 450 19,600 -2,700 Descending Oakland Center
01:54AM 39.9939 -119.2775 253° West 373 429 17,300 -1,740 Descending Oakland Center
01:55AM 39.9672 -119.3881 253° West 329 379 16,200 -1,380 Descending Oakland Center
01:56AM 39.9428 -119.4897 253° West 301 346 14,500 -1,680 Descending Oakland Center
01:57AM 39.9217 -119.5906 255° West 293 337 12,900 -2,040 Descending Oakland Center
01:58AM 39.8800 -119.6769 238° Southwest 290 334 10,500 -1,800 Descending Oakland Center
01:59AM 39.8194 -119.7600 227° Southwest 298 343 9,300 -1,080 Descending Oakland Center
02:01AM 39.6667 -119.7667 182° South 226 260 7,200 -900 Descending Northern Cal TRACON
02:02AM 39.6167 -119.7667 180° South 189 217 6,600 -720 Descending Northern Cal TRACON
02:03AM 39.5833 -119.7667 180° South 146 168 5,800 -840 Descending Northern Cal TRACON
02:04AM 39.5333 -119.7667 180° South 139 160 5,000 -840 Descending Northern Cal TRACON
02:06AM 39.4991 -119.7681 188° South  Level Estimated
02:13AM 39.4991 -119.7681 188° South  Level Estimated